createdAt,value
2022-11-12T02:14:42.741Z,19.53
2022-11-12T02:16:54.167Z,19.22
2022-11-12T02:17:59.605Z,19.67
2022-11-12T02:19:03.003Z,20.68
2022-11-12T02:20:10.741Z,19.64
2022-11-12T02:21:12.651Z,20.16
2022-11-12T02:22:14.563Z,19.97
2022-11-12T02:23:16.436Z,19.52
2022-11-12T02:24:22.118Z,17.60
2022-11-12T02:25:26.002Z,18.83
2022-11-12T02:26:31.701Z,18.11
2022-11-12T02:27:34.114Z,17.31
2022-11-12T02:28:36.011Z,17.75
2022-11-12T02:29:37.928Z,17.58
2022-11-12T02:30:46.629Z,17.35
2022-11-12T02:31:49.474Z,17.97
2022-11-12T02:32:51.348Z,17.34
2022-11-12T02:33:53.227Z,18.08
2022-11-12T02:34:55.109Z,17.57
2022-11-12T02:35:56.999Z,17.22
2022-11-12T02:36:59.021Z,16.65
2022-11-12T02:38:02.283Z,16.27
2022-11-12T02:39:04.822Z,16.84
2022-11-12T02:40:08.307Z,17.24
2022-11-12T02:41:10.301Z,16.26
2022-11-12T02:42:12.460Z,17.05
2022-11-12T02:43:14.331Z,15.84
2022-11-12T02:44:16.220Z,16.69
2022-11-12T02:45:18.924Z,16.59
2022-11-12T02:46:21.642Z,17.01
2022-11-12T02:47:23.576Z,17.25
2022-11-12T02:48:25.603Z,16.37
2022-11-12T02:49:27.756Z,17.60
2022-11-12T02:50:31.912Z,16.89
2022-11-12T02:51:33.833Z,16.49
2022-11-12T02:52:36.296Z,17.35
2022-11-12T02:53:39.408Z,16.24
2022-11-12T02:54:41.668Z,16.72
2022-11-12T02:55:43.686Z,16.67
2022-11-12T02:56:45.769Z,16.40
2022-11-12T02:57:48.535Z,16.91
2022-11-12T02:58:50.408Z,16.76
2022-11-12T02:59:53.274Z,16.83
2022-11-12T03:00:56.169Z,16.02
2022-11-12T03:01:58.687Z,16.49
2022-11-12T03:03:00.557Z,17.43
2022-11-12T03:04:02.672Z,16.95
2022-11-12T03:05:04.831Z,16.51
2022-11-12T03:06:07.461Z,17.41
2022-11-12T03:07:09.558Z,16.67
2022-11-12T03:08:12.171Z,16.07
2022-11-12T03:09:14.240Z,15.84
2022-11-12T03:10:17.160Z,16.36
2022-11-12T03:11:19.016Z,16.30
2022-11-12T03:12:20.876Z,17.10
2022-11-12T03:13:22.768Z,15.09
2022-11-12T03:14:25.435Z,15.87
2022-11-12T03:15:28.606Z,16.79
2022-11-12T03:16:30.616Z,15.36
2022-11-12T03:17:34.537Z,14.84
2022-11-12T03:18:36.627Z,14.60
2022-11-12T03:19:38.515Z,15.45
2022-11-12T03:20:40.552Z,16.21
2022-11-12T03:21:42.419Z,16.25
2022-11-12T03:22:51.696Z,16.61
2022-11-12T03:23:53.630Z,15.78
2022-11-12T03:24:55.512Z,13.93
2022-11-12T03:25:57.384Z,15.94
2022-11-12T03:26:59.381Z,14.90
2022-11-12T03:28:10.363Z,15.79
2022-11-12T03:29:13.201Z,14.95
2022-11-12T03:30:15.422Z,16.52
2022-11-12T03:31:19.448Z,16.91
2022-11-12T03:32:23.155Z,16.04
2022-11-12T03:33:28.859Z,16.53
2022-11-12T03:34:30.783Z,16.06
2022-11-12T03:35:33.972Z,16.83
2022-11-12T03:36:36.489Z,16.26
2022-11-12T03:37:38.397Z,17.51
2022-11-12T03:38:40.292Z,16.70
2022-11-12T03:39:42.711Z,17.17
2022-11-12T03:40:44.695Z,16.73
2022-11-12T03:41:46.543Z,16.73
2022-11-12T03:42:50.578Z,17.93
2022-11-12T03:43:52.486Z,16.42
2022-11-12T03:44:54.738Z,17.52
2022-11-12T03:45:56.611Z,16.38
2022-11-12T03:46:58.803Z,17.65
2022-11-12T03:48:01.694Z,16.01
2022-11-12T03:49:03.574Z,16.44
2022-11-12T03:50:07.285Z,17.25
2022-11-12T03:51:10.123Z,16.73
2022-11-12T03:52:14.112Z,16.47
2022-11-12T03:53:16.888Z,16.36
2022-11-12T03:54:18.773Z,16.47
2022-11-12T03:55:24.992Z,16.23
2022-11-12T03:56:27.169Z,16.16
2022-11-12T03:57:30.444Z,15.89
2022-11-12T03:58:34.350Z,16.22
2022-11-12T03:59:38.294Z,16.39
2022-11-12T04:00:40.309Z,16.68
2022-11-12T04:01:43.018Z,16.39
2022-11-12T04:02:45.640Z,16.48
2022-11-12T04:03:51.347Z,15.35
2022-11-12T04:04:53.464Z,16.78
2022-11-12T04:05:55.342Z,15.79
2022-11-12T04:06:58.186Z,14.90
2022-11-12T04:09:14.006Z,14.44
2022-11-12T04:10:18.234Z,15.50
2022-11-12T04:11:20.164Z,15.06
2022-11-12T04:12:22.052Z,16.21
2022-11-12T04:13:24.686Z,15.84
2022-11-12T04:14:26.638Z,16.25
2022-11-12T04:15:29.130Z,15.75
2022-11-12T04:16:33.125Z,15.87
2022-11-12T04:17:35.024Z,16.11
2022-11-12T04:18:38.463Z,15.64
2022-11-12T04:19:40.382Z,16.42
2022-11-12T04:20:43.684Z,16.06
2022-11-12T04:21:55.139Z,16.39
2022-11-12T04:22:57.275Z,15.62
2022-11-12T04:23:59.477Z,15.27
2022-11-12T04:25:01.449Z,15.77
2022-11-12T04:26:04.472Z,14.75
2022-11-12T04:27:09.754Z,16.14
2022-11-12T04:28:11.673Z,16.38
2022-11-12T04:29:13.868Z,15.69
2022-11-12T04:30:17.701Z,14.98
2022-11-12T04:31:20.010Z,14.44
2022-11-12T04:32:22.243Z,15.13
2022-11-12T04:33:24.497Z,15.85
2022-11-12T04:34:26.444Z,14.75
2022-11-12T04:35:28.363Z,15.83
2022-11-12T04:36:30.329Z,14.63
2022-11-12T04:37:34.521Z,14.83
2022-11-12T04:38:36.840Z,13.73
2022-11-12T04:39:38.729Z,16.22
2022-11-12T04:40:40.691Z,15.40
2022-11-12T04:41:43.030Z,13.57
2022-11-12T04:42:47.262Z,14.65
2022-11-12T04:43:49.162Z,16.86
2022-11-12T04:44:51.267Z,14.09
2022-11-12T04:45:56.484Z,14.67
2022-11-12T04:46:58.488Z,14.70
2022-11-12T04:48:01.120Z,15.79
2022-11-12T04:49:03.200Z,15.76
2022-11-12T04:50:09.732Z,14.87
2022-11-12T04:51:11.738Z,15.69
2022-11-12T04:52:14.170Z,15.44
2022-11-12T04:53:16.308Z,15.25
2022-11-12T04:54:18.179Z,16.17
2022-11-12T04:55:20.091Z,15.93
2022-11-12T04:56:22.048Z,16.19
2022-11-12T04:57:25.668Z,16.17
2022-11-12T04:58:27.914Z,16.68
2022-11-12T04:59:31.183Z,16.05
2022-11-12T05:00:33.344Z,16.41
2022-11-12T05:01:35.363Z,16.44
2022-11-12T05:02:37.362Z,15.01
2022-11-12T05:03:39.230Z,15.32
2022-11-12T05:04:41.216Z,15.44
2022-11-12T05:05:43.090Z,15.01
2022-11-12T05:06:45.177Z,16.07
2022-11-12T05:07:47.325Z,16.98
2022-11-12T05:08:49.456Z,14.55
2022-11-12T05:09:51.471Z,15.42
2022-11-12T05:10:53.477Z,15.11
2022-11-12T05:11:55.666Z,15.43
2022-11-12T05:12:57.590Z,16.41
2022-11-12T05:13:59.441Z,16.06
2022-11-12T05:15:02.314Z,14.47
2022-11-12T05:16:05.282Z,13.96
2022-11-12T05:17:07.206Z,14.06
2022-11-12T05:18:09.069Z,14.57
2022-11-12T05:19:11.408Z,13.61
2022-11-12T05:20:15.167Z,14.58
2022-11-12T05:21:17.087Z,15.00
2022-11-12T05:22:42.021Z,14.33
2022-11-12T05:23:22.754Z,15.31
2022-11-12T05:24:40.942Z,16.12
2022-11-12T05:25:31.181Z,14.77
2022-11-12T05:26:33.151Z,15.20
2022-11-12T05:27:35.754Z,15.27
2022-11-12T05:28:37.622Z,14.97
2022-11-12T05:29:39.912Z,16.31
2022-11-12T05:30:42.100Z,16.19
2022-11-12T05:31:44.911Z,14.89
2022-11-12T05:32:47.868Z,15.50
2022-11-12T05:33:49.779Z,16.79
2022-11-12T05:34:51.854Z,16.96
2022-11-12T05:35:56.663Z,16.72
2022-11-12T05:36:59.776Z,18.00
2022-11-12T05:38:01.638Z,17.41
2022-11-12T05:39:03.770Z,16.45
2022-11-12T05:40:07.403Z,17.03
2022-11-12T05:41:09.420Z,17.89
2022-11-12T05:42:13.879Z,16.03
2022-11-12T05:43:16.803Z,16.85
2022-11-12T05:44:18.997Z,17.48
2022-11-12T05:45:20.840Z,16.46
2022-11-12T05:46:25.547Z,17.45
2022-11-12T05:47:27.447Z,16.24
2022-11-12T05:48:29.698Z,16.64
2022-11-12T05:49:32.017Z,15.66
2022-11-12T05:50:45.404Z,15.85
2022-11-12T05:51:38.226Z,15.63
2022-11-12T05:52:40.634Z,16.19
2022-11-12T05:53:42.519Z,15.73
2022-11-12T05:54:44.373Z,15.53
2022-11-12T05:55:46.275Z,17.13
2022-11-12T05:56:50.124Z,15.30
2022-11-12T05:57:52.218Z,17.30
2022-11-12T05:58:58.465Z,15.99
2022-11-12T06:00:00.657Z,16.87
2022-11-12T06:01:03.249Z,16.55
2022-11-12T06:02:05.226Z,16.97
2022-11-12T06:03:09.199Z,17.11
2022-11-12T06:04:13.288Z,17.32
2022-11-12T06:05:15.406Z,16.58
2022-11-12T06:06:18.199Z,15.50
2022-11-12T06:07:21.068Z,16.40
2022-11-12T10:12:05.310Z,11.77
2022-11-12T10:13:13.816Z,12.31
2022-11-12T10:14:22.538Z,12.45
2022-11-12T10:15:53.610Z,11.79
2022-11-12T10:17:11.450Z,11.59
2022-11-12T10:18:17.424Z,11.81
2022-11-12T10:19:40.946Z,11.54
2022-11-12T10:20:55.983Z,12.02
2022-11-12T10:22:20.202Z,10.88
2022-11-12T10:23:43.908Z,11.84
2022-11-12T10:24:48.871Z,10.96
2022-11-12T10:25:54.543Z,11.72
2022-11-12T10:26:58.852Z,12.23
2022-11-12T10:29:33.743Z,11.14
2022-11-12T10:30:38.450Z,11.12
2022-11-12T10:31:40.481Z,11.70
2022-11-12T10:32:44.382Z,10.97
2022-11-12T10:33:47.010Z,10.15
2022-11-12T10:34:49.087Z,10.61
2022-11-12T10:35:52.558Z,10.49
2022-11-12T10:37:01.408Z,10.61
2022-11-12T10:38:06.673Z,10.89
2022-11-12T10:39:09.191Z,10.86
2022-11-12T10:40:27.189Z,10.50
2022-11-12T10:41:33.010Z,9.67
2022-11-12T10:42:38.241Z,9.88
2022-11-12T10:43:44.326Z,10.06
2022-11-12T10:44:47.220Z,10.65
2022-11-12T10:45:50.794Z,9.91
2022-11-12T10:46:56.617Z,10.24
2022-11-12T10:47:59.772Z,10.64
2022-11-12T10:49:05.641Z,10.02
2022-11-12T10:50:11.855Z,10.06
2022-11-12T10:51:26.509Z,9.60
2022-11-12T10:52:28.431Z,9.43
2022-11-12T10:53:33.639Z,9.65
2022-11-12T10:54:37.185Z,9.67
2022-11-12T10:55:59.583Z,9.04
2022-11-12T10:58:36.598Z,9.61
2022-11-12T10:59:40.786Z,9.48
2022-11-12T11:01:01.971Z,10.21
2022-11-12T11:02:07.795Z,9.86
2022-11-12T11:03:22.503Z,9.59
2022-11-12T11:04:36.478Z,10.55
2022-11-12T11:05:57.461Z,9.82
2022-11-12T11:07:21.740Z,9.36
2022-11-12T11:08:39.966Z,10.47
2022-11-12T11:09:57.153Z,9.29
2022-11-12T11:11:28.184Z,9.13
2022-11-12T11:12:34.550Z,8.89
2022-11-12T11:13:39.633Z,8.42
2022-11-12T11:14:43.804Z,10.16
2022-11-12T11:16:02.012Z,9.55
2022-11-12T11:17:08.498Z,8.36
2022-11-12T11:18:14.978Z,9.55
2022-11-12T11:19:27.181Z,9.82
2022-11-12T11:20:47.648Z,9.54
2022-11-12T11:22:01.606Z,9.50
2022-11-12T11:23:14.577Z,8.51
2022-11-12T11:24:42.452Z,9.90
2022-11-12T11:25:49.344Z,9.99
2022-11-12T11:27:11.949Z,10.21
2022-11-12T11:28:30.393Z,9.88
2022-11-12T11:30:04.625Z,9.06
2022-11-12T11:31:28.763Z,8.41
2022-11-12T11:33:03.787Z,9.64
2022-11-12T11:34:21.311Z,8.73
2022-11-12T11:36:54.702Z,9.60
2022-11-12T11:38:07.442Z,8.95
2022-11-12T11:39:13.458Z,8.96
2022-11-12T11:40:39.697Z,9.74
2022-11-12T11:41:54.451Z,8.99
2022-11-12T11:43:03.902Z,9.26
2022-11-12T11:44:37.261Z,9.08
2022-11-12T11:46:01.287Z,9.21
2022-11-12T11:47:10.599Z,9.00
2022-11-12T11:48:19.814Z,9.23
2022-11-12T11:49:28.479Z,8.79
2022-11-12T11:50:37.133Z,9.81
2022-11-12T11:51:45.698Z,9.86
2022-11-12T11:52:57.948Z,9.20
2022-11-12T11:54:13.935Z,9.04
2022-11-12T11:55:25.719Z,9.10
2022-11-12T11:56:31.798Z,10.01
2022-11-12T11:57:43.678Z,9.33
2022-11-12T11:58:49.534Z,8.89
2022-11-12T12:00:05.157Z,8.70
2022-11-12T12:01:29.884Z,9.36
2022-11-12T12:02:44.289Z,8.20
2022-11-12T12:03:53.075Z,8.87
2022-11-12T12:05:13.796Z,8.01
2022-11-12T12:08:26.320Z,9.17
2022-11-12T12:09:44.676Z,9.32
2022-11-12T12:11:10.749Z,8.62
2022-11-12T12:12:43.945Z,8.99
2022-11-12T12:13:52.397Z,8.86
2022-11-12T12:15:27.338Z,8.36
2022-11-12T12:16:47.813Z,8.64
2022-11-12T12:18:05.362Z,9.64
2022-11-12T12:19:40.098Z,9.75
2022-11-12T12:20:54.688Z,9.62
2022-11-12T12:22:01.561Z,8.58
2022-11-12T12:23:08.096Z,9.36
2022-11-12T12:24:28.499Z,9.62
2022-11-12T12:25:37.251Z,8.77
2022-11-12T12:26:49.220Z,8.27
2022-11-12T12:27:55.473Z,9.23
2022-11-12T12:29:13.525Z,8.59
2022-11-12T12:30:24.068Z,9.10
2022-11-12T12:31:32.912Z,10.33
2022-11-12T12:32:44.614Z,9.51
2022-11-12T12:34:08.317Z,9.19
2022-11-12T12:35:28.594Z,8.93
2022-11-12T12:36:42.408Z,9.83
2022-11-12T12:37:59.682Z,9.64
2022-11-12T12:39:21.534Z,10.04
2022-11-12T12:40:42.536Z,9.35
2022-11-12T12:41:52.373Z,9.16
2022-11-12T12:43:09.585Z,10.62
2022-11-12T12:44:12.902Z,9.18
2022-11-12T12:45:36.252Z,9.53
2022-11-12T12:46:47.866Z,10.72
2022-11-12T12:47:51.745Z,9.09
2022-11-12T12:48:57.012Z,10.38
2022-11-12T12:50:02.024Z,9.06
2022-11-12T12:51:04.230Z,9.70
2022-11-12T12:52:06.318Z,10.01
2022-11-12T12:53:21.104Z,9.42
2022-11-12T12:55:53.385Z,9.41
2022-11-12T12:56:55.701Z,10.07
2022-11-12T12:58:00.837Z,10.68
2022-11-12T12:59:02.819Z,9.42
2022-11-12T13:00:26.040Z,9.76
2022-11-12T13:01:31.714Z,10.13
2022-11-12T13:02:36.900Z,10.07
2022-11-12T13:04:02.832Z,10.33
2022-11-12T13:05:28.417Z,9.88
2022-11-12T13:06:36.825Z,9.52
2022-11-12T13:07:44.929Z,8.91
2022-11-12T13:08:49.352Z,10.08
2022-11-12T13:09:51.361Z,9.70
2022-11-12T13:10:54.039Z,9.95
2022-11-12T13:11:56.151Z,9.33
2022-11-12T13:13:18.675Z,9.88
2022-11-12T13:14:40.498Z,9.72
2022-11-12T13:17:37.812Z,9.79
2022-11-12T13:18:43.523Z,9.58
2022-11-12T13:19:58.261Z,9.99
2022-11-12T13:21:14.702Z,10.14
2022-11-12T13:22:21.073Z,10.53
2022-11-12T13:23:43.631Z,10.38
2022-11-12T13:25:09.613Z,9.88
2022-11-12T13:26:50.952Z,10.38
2022-11-12T13:28:08.729Z,10.37
2022-11-12T13:29:25.706Z,9.79
2022-11-12T13:30:31.527Z,9.84
2022-11-12T13:31:35.908Z,9.93
2022-11-12T13:32:49.679Z,9.87
2022-11-12T13:33:51.794Z,10.55
2022-11-12T13:35:21.002Z,11.18
2022-11-12T13:36:26.354Z,10.99
2022-11-12T13:37:29.043Z,10.86
2022-11-12T13:38:34.866Z,11.12
2022-11-12T13:39:37.351Z,10.48
2022-11-12T13:41:07.026Z,11.01
2022-11-12T13:42:15.927Z,10.69
2022-11-12T13:44:31.352Z,11.15
2022-11-12T13:45:37.008Z,10.39
2022-11-12T13:46:39.292Z,11.07
2022-11-12T13:47:42.908Z,10.23
2022-11-12T13:49:03.805Z,10.11
2022-11-12T13:50:09.047Z,10.59
2022-11-12T13:51:30.253Z,11.00
2022-11-12T13:52:33.756Z,10.84
2022-11-12T13:53:35.732Z,12.65
2022-11-12T13:54:38.464Z,9.79
2022-11-12T13:55:49.318Z,11.89
2022-11-12T13:56:53.573Z,11.26
2022-11-12T13:57:57.302Z,10.66
2022-11-12T13:59:14.163Z,10.65
2022-11-12T14:00:20.671Z,9.99
2022-11-12T14:01:24.825Z,10.75
2022-11-12T14:02:27.142Z,10.14
2022-11-12T14:03:45.283Z,11.39
2022-11-12T14:04:47.763Z,11.12
2022-11-12T18:51:21.032Z,6.63
2022-11-12T18:52:22.999Z,6.63
2022-11-12T18:53:27.816Z,6.18
2022-11-12T18:54:29.934Z,6.43
2022-11-12T18:55:32.032Z,6.20
2022-11-12T18:56:34.033Z,6.40
2022-11-12T18:57:37.287Z,7.17
2022-11-12T18:58:39.857Z,6.33
2022-11-12T18:59:42.328Z,6.68
2022-11-12T19:00:44.338Z,6.64
2022-11-12T19:01:47.172Z,6.24
2022-11-12T19:02:49.091Z,6.40
2022-11-12T19:03:54.247Z,6.73
2022-11-12T19:04:56.382Z,5.76
2022-11-12T19:06:00.931Z,5.76
2022-11-12T19:07:02.889Z,6.34
2022-11-12T19:08:07.360Z,12.89
2022-11-12T19:09:09.506Z,10.74
2022-11-12T19:10:15.096Z,6.81
2022-11-12T19:11:19.263Z,5.85
2022-11-12T19:12:21.242Z,6.52
2022-11-12T19:13:23.137Z,6.15
2022-11-12T19:14:25.295Z,5.39
2022-11-12T19:15:31.970Z,6.69
2022-11-12T19:16:41.815Z,8.27
2022-11-12T19:17:47.578Z,7.14
2022-11-12T19:18:52.101Z,6.57
2022-11-12T19:19:58.079Z,6.11
2022-11-12T19:21:05.025Z,6.07
2022-11-12T19:22:09.648Z,6.32
2022-11-12T19:23:16.401Z,6.65
2022-11-12T19:24:23.191Z,5.67
2022-11-12T19:25:26.255Z,5.82
2022-11-12T19:26:30.313Z,6.49
2022-11-12T19:27:35.148Z,5.46
2022-11-12T19:28:40.780Z,6.28
2022-11-12T19:29:45.675Z,6.16
2022-11-12T19:30:47.897Z,6.89
2022-11-12T19:31:50.112Z,5.88
2022-11-12T19:32:53.119Z,7.14
2022-11-12T19:33:55.590Z,6.54
2022-11-12T19:34:57.912Z,6.74
2022-11-12T19:36:07.216Z,6.24
2022-11-12T19:37:32.454Z,7.07
2022-11-12T19:40:32.233Z,5.81
2022-11-12T19:41:34.169Z,5.40
2022-11-12T19:42:37.356Z,5.66
2022-11-12T19:43:39.850Z,5.33
2022-11-12T19:44:43.238Z,5.39
2022-11-12T19:45:45.636Z,5.83
2022-11-12T19:46:47.692Z,6.89
2022-11-12T19:47:49.830Z,7.02
2022-11-12T19:48:51.696Z,5.99
2022-11-12T19:49:53.594Z,5.54
2022-11-12T19:51:01.194Z,5.19
2022-11-12T19:52:03.474Z,5.61
2022-11-12T19:53:10.586Z,5.82
2022-11-12T19:54:12.484Z,5.17
2022-11-12T19:55:16.210Z,5.39
2022-11-12T19:56:18.343Z,5.65
2022-11-12T19:57:20.429Z,5.69
2022-11-12T19:58:22.418Z,5.99
2022-11-12T19:59:24.431Z,5.19
2022-11-12T20:00:26.442Z,5.41
2022-11-12T20:01:28.458Z,5.39
2022-11-12T20:02:30.802Z,5.48
2022-11-12T20:03:33.348Z,5.21
2022-11-12T20:04:35.338Z,5.56
2022-11-12T20:05:37.200Z,4.80
2022-11-12T20:06:41.562Z,5.01
2022-11-12T20:07:48.738Z,5.01
2022-11-12T20:08:50.974Z,5.83
2022-11-12T20:09:56.574Z,4.99
2022-11-12T20:10:57.470Z,5.21
2022-11-12T20:11:59.422Z,4.99
2022-11-12T20:13:01.304Z,5.23
2022-11-12T20:14:07.571Z,4.75
2022-11-12T20:15:13.087Z,4.61
2022-11-12T20:16:23.808Z,4.96
2022-11-12T20:17:23.720Z,4.37
2022-11-12T20:18:27.312Z,4.97
2022-11-12T20:19:32.153Z,5.02
2022-11-12T20:20:36.152Z,4.87
2022-11-12T20:21:38.220Z,5.14
2022-11-12T20:22:40.354Z,4.69
2022-11-12T20:23:43.321Z,4.95
2022-11-12T20:24:45.188Z,5.12
2022-11-12T20:25:47.048Z,4.81
2022-11-12T20:26:49.063Z,4.83
2022-11-12T20:27:54.347Z,5.04
2022-11-12T20:28:56.288Z,4.69
2022-11-12T20:29:58.153Z,4.69
2022-11-12T20:32:20.014Z,4.67
2022-11-12T20:33:21.922Z,4.29
2022-11-12T20:34:23.915Z,3.84
2022-11-12T20:35:25.795Z,4.51
2022-11-12T20:36:28.509Z,4.29
2022-11-12T20:37:30.428Z,4.31
2022-11-12T20:38:38.416Z,3.60
2022-11-12T20:39:40.322Z,3.92
2022-11-12T20:40:42.515Z,3.84
2022-11-12T20:41:44.382Z,4.37
2022-11-12T20:42:46.251Z,4.03
2022-11-12T20:43:54.008Z,4.12
2022-11-12T20:44:55.942Z,4.37
2022-11-12T20:46:01.301Z,4.02
2022-11-12T20:47:03.293Z,3.88
2022-11-12T20:48:05.472Z,3.61
2022-11-12T20:49:07.329Z,3.42
2022-11-12T20:50:10.073Z,3.51
2022-11-12T20:51:26.101Z,3.41
2022-11-12T20:52:26.293Z,3.18
2022-11-12T20:53:28.204Z,3.11
2022-11-12T20:54:30.156Z,3.46
2022-11-12T20:55:34.356Z,3.49
2022-11-12T20:56:36.322Z,3.16
2022-11-12T20:57:42.651Z,3.69
2022-11-12T20:58:45.449Z,3.07
2022-11-12T20:59:51.330Z,3.07
2022-11-12T21:00:52.847Z,3.16
2022-11-12T21:01:58.743Z,3.20
2022-11-12T21:03:01.432Z,3.28
2022-11-12T21:04:04.314Z,3.41
2022-11-12T21:05:09.094Z,3.79
2022-11-12T21:06:16.554Z,3.03
2022-11-12T21:07:19.699Z,2.98
2022-11-12T21:08:23.233Z,2.97
2022-11-12T21:09:25.210Z,3.53
2022-11-12T21:10:27.505Z,3.26
2022-11-12T21:11:31.614Z,3.62
2022-11-12T21:12:36.042Z,2.87
2022-11-12T21:13:38.944Z,3.12
2022-11-12T21:14:49.064Z,2.99
2022-11-12T21:15:48.208Z,3.24
2022-11-12T21:16:53.083Z,3.33
2022-11-12T21:17:55.046Z,3.58
2022-11-12T21:18:59.901Z,2.83
2022-11-12T21:20:02.823Z,2.73
2022-11-12T21:21:10.989Z,2.86
2022-11-12T21:22:13.174Z,2.93
2022-11-12T21:23:15.312Z,3.25
2022-11-12T21:24:18.069Z,2.82
2022-11-12T21:25:21.044Z,2.89
2022-11-12T21:26:23.516Z,2.66
2022-11-12T21:27:26.914Z,2.91
2022-11-12T21:28:30.589Z,2.72
2022-11-12T21:29:33.360Z,3.30
2022-11-12T21:30:36.482Z,3.30
2022-11-12T21:31:39.711Z,3.36
2022-11-12T21:32:43.424Z,2.89
2022-11-12T21:33:54.232Z,3.12
2022-11-12T21:34:56.196Z,3.48
2022-11-12T21:36:00.410Z,3.13
2022-11-12T21:37:02.365Z,3.76
2022-11-12T21:38:04.841Z,3.81
2022-11-12T21:39:08.585Z,3.41
2022-11-12T21:40:12.633Z,3.36
2022-11-12T21:41:17.562Z,3.51
2022-11-12T21:42:19.479Z,3.41
2022-11-12T21:43:21.331Z,3.19
2022-11-12T21:44:23.829Z,3.49
2022-11-12T21:45:25.699Z,2.89
2022-11-12T21:46:30.407Z,3.35
2022-11-12T21:47:32.308Z,2.45
2022-11-12T21:48:35.430Z,2.70
2022-11-12T21:49:38.588Z,2.24
2022-11-12T21:50:40.782Z,2.42
2022-11-12T21:51:42.785Z,2.72
2022-11-12T21:52:45.083Z,3.65
2022-11-12T21:53:50.480Z,3.87
2022-11-12T21:54:52.381Z,3.45
2022-11-12T21:56:03.755Z,3.63
2022-11-12T21:57:05.988Z,3.75
2022-11-12T21:58:08.051Z,3.61
2022-11-12T21:59:10.183Z,3.77
2022-11-12T22:00:40.199Z,3.61
2022-11-12T22:01:21.367Z,3.46
2022-11-12T22:02:23.374Z,3.31
2022-11-12T22:03:29.195Z,3.55
2022-11-12T22:04:31.685Z,3.74
2022-11-12T22:05:36.503Z,4.69
2022-11-12T22:06:38.601Z,3.86
2022-11-12T22:07:40.602Z,3.52
2022-11-12T22:08:43.423Z,3.05
2022-11-12T22:09:45.847Z,3.54
2022-11-12T22:10:48.591Z,2.94
2022-11-12T22:11:50.462Z,2.49
2022-11-12T22:13:19.868Z,2.75
2022-11-12T22:13:56.566Z,2.34
2022-11-12T22:14:58.550Z,2.48
2022-11-12T22:16:15.727Z,3.10
2022-11-12T22:17:17.703Z,2.63
2022-11-12T22:18:19.677Z,3.12
2022-11-12T22:19:21.647Z,2.79
2022-11-12T22:20:23.686Z,2.94
2022-11-12T22:21:29.115Z,3.05
2022-11-12T22:22:31.118Z,3.38
2022-11-12T22:23:34.036Z,2.79
2022-11-12T22:24:35.936Z,2.67
2022-11-12T22:25:37.810Z,2.77
2022-11-12T22:26:41.323Z,3.01
2022-11-12T22:27:44.321Z,3.53
2022-11-12T22:28:46.828Z,3.30
2022-11-12T22:29:48.719Z,3.23
2022-11-12T22:30:52.308Z,3.42
2022-11-12T22:31:54.266Z,3.66
2022-11-12T22:32:56.247Z,3.62
2022-11-12T22:34:00.727Z,3.73
2022-11-12T22:35:02.762Z,3.92
2022-11-12T22:36:08.192Z,3.31
2022-11-12T22:37:11.258Z,3.25
2022-11-12T22:38:13.344Z,4.05
2022-11-12T22:39:15.348Z,3.88
2022-11-12T22:40:19.358Z,3.67
2022-11-12T22:41:24.784Z,3.89
2022-11-12T22:42:26.687Z,3.67
2022-11-12T22:43:28.553Z,3.35
2022-11-12T22:44:30.541Z,4.41
2022-11-12T22:45:34.509Z,4.26
2022-11-12T22:46:36.528Z,3.55
2022-11-12T22:47:38.397Z,4.31
2022-11-12T22:48:41.065Z,3.22
2022-11-12T22:49:42.944Z,3.10
2022-11-12T22:50:44.934Z,3.67
2022-11-12T22:51:46.907Z,3.15
2022-11-12T22:52:50.374Z,3.21
2022-11-12T22:55:29.970Z,2.84
2022-11-12T22:56:32.648Z,2.60
2022-11-12T22:57:34.986Z,3.17
2022-11-12T22:58:38.906Z,3.10
2022-11-12T22:59:41.559Z,2.79
2022-11-12T23:00:43.881Z,2.81
2022-11-12T23:01:45.917Z,2.67
2022-11-12T23:02:48.146Z,2.70
2022-11-12T23:03:51.653Z,2.52
2022-11-12T23:04:54.150Z,2.51
2022-11-12T23:05:58.063Z,2.65
2022-11-12T23:07:00.235Z,2.51
2022-11-12T23:08:03.217Z,3.17
2022-11-12T23:09:05.398Z,2.27
2022-11-12T23:10:09.082Z,2.58
2022-11-12T23:11:14.572Z,3.07
2022-11-12T23:12:16.510Z,2.95
2022-11-12T23:13:18.784Z,3.03
2022-11-12T23:14:20.944Z,2.48
2022-11-12T23:15:22.886Z,2.64
2022-11-12T23:16:28.186Z,2.55
2022-11-12T23:17:30.088Z,2.29
2022-11-12T23:18:32.022Z,2.25
2022-11-12T23:19:33.916Z,2.38
2022-11-12T23:20:36.094Z,2.57
2022-11-12T23:21:37.968Z,2.47
2022-11-12T23:22:39.957Z,2.33
2022-11-12T23:23:42.723Z,2.70
2022-11-12T23:24:45.105Z,2.51
2022-11-12T23:25:47.013Z,3.73
2022-11-12T23:26:48.992Z,2.93
2022-11-12T23:27:50.868Z,3.27
2022-11-12T23:28:52.963Z,3.35
2022-11-12T23:29:54.847Z,3.58
2022-11-12T23:30:57.149Z,3.01
2022-11-12T23:31:59.104Z,3.21
2022-11-12T23:33:02.325Z,2.89
2022-11-12T23:34:04.438Z,2.96
2022-11-12T23:35:07.000Z,2.95
2022-11-12T23:36:10.711Z,2.88
2022-11-12T23:37:12.927Z,2.66
2022-11-12T23:38:15.277Z,2.88
2022-11-12T23:39:17.147Z,3.19
2022-11-12T23:40:19.127Z,3.33
2022-11-12T23:41:24.165Z,2.83
2022-11-12T23:42:27.633Z,3.13
2022-11-12T23:43:30.735Z,2.74
2022-11-12T23:44:32.680Z,3.31
2022-11-12T23:45:37.570Z,3.16
2022-11-12T23:46:40.621Z,2.86
2022-11-12T23:47:42.854Z,2.83
2022-11-12T23:48:45.358Z,3.39
2022-11-12T23:49:47.229Z,2.91
2022-11-12T23:50:50.919Z,3.06
2022-11-12T23:51:52.861Z,2.71
2022-11-12T23:52:55.237Z,2.66
2022-11-12T23:53:57.127Z,2.62
2022-11-12T23:54:59.576Z,2.83
2022-11-12T23:56:02.015Z,3.62
2022-11-12T23:57:04.683Z,3.22
2022-11-12T23:58:06.659Z,2.48
2022-11-12T23:59:08.894Z,2.51
